createdAt,value
2017-11-24T00:01:10.094Z,85.67
2017-11-24T00:03:37.614Z,85.54
2017-11-24T00:06:05.287Z,85.75
2017-11-24T00:08:32.819Z,85.96
2017-11-24T00:11:00.334Z,85.96
2017-11-24T00:13:27.919Z,85.81
2017-11-24T00:15:55.433Z,86.03
2017-11-24T00:18:23.112Z,85.99
2017-11-24T00:20:50.656Z,86.08
2017-11-24T00:23:18.195Z,85.33
2017-11-24T00:25:45.759Z,85.75
2017-11-24T00:28:13.340Z,85.88
2017-11-24T00:30:40.891Z,86.03
2017-11-24T00:33:08.433Z,85.92
2017-11-24T00:35:35.987Z,85.94
2017-11-24T00:38:03.511Z,86.45
2017-11-24T00:40:31.088Z,86.84
2017-11-24T00:42:58.615Z,87.03
2017-11-24T00:45:26.134Z,87.34
2017-11-24T00:47:53.714Z,87.29
2017-11-24T00:50:21.231Z,87.55
2017-11-24T00:52:48.779Z,87.72
2017-11-24T00:55:16.431Z,87.73
2017-11-24T00:57:43.962Z,87.55
2017-11-24T01:00:11.520Z,87.23
2017-11-24T01:02:39.096Z,87.10
2017-11-24T01:05:06.634Z,87.07
2017-11-24T01:07:34.157Z,87.29
2017-11-24T01:10:01.704Z,86.91
2017-11-24T01:12:29.235Z,87.35
2017-11-24T01:14:56.927Z,87.76
2017-11-24T01:17:24.477Z,88.17
2017-11-24T01:19:51.989Z,88.72
2017-11-24T01:22:19.540Z,88.92
2017-11-24T01:24:47.063Z,89.29
2017-11-24T01:27:14.638Z,89.54
2017-11-24T01:29:42.163Z,89.52
2017-11-24T01:32:09.678Z,89.65
2017-11-24T01:34:37.225Z,89.62
2017-11-24T01:37:04.812Z,90.06
2017-11-24T01:39:32.334Z,90.21
2017-11-24T01:42:00.005Z,90.30
2017-11-24T01:44:27.574Z,91.03
2017-11-24T01:46:55.090Z,90.85
2017-11-24T01:49:22.624Z,91.11
2017-11-24T01:51:50.166Z,90.48
2017-11-24T01:54:17.734Z,90.38
2017-11-24T01:56:45.264Z,90.06
2017-11-24T01:59:12.781Z,89.93
2017-11-24T02:01:40.342Z,89.72
2017-11-24T02:04:08.075Z,89.42
2017-11-24T02:06:35.589Z,89.43
2017-11-24T02:09:03.125Z,89.16
2017-11-24T02:11:30.796Z,89.30
2017-11-24T02:13:58.316Z,88.88
2017-11-24T02:16:25.833Z,89.18
2017-11-24T02:18:53.498Z,88.93
2017-11-24T02:21:21.042Z,88.77
2017-11-24T02:23:48.563Z,88.84
2017-11-24T02:26:16.125Z,88.81
2017-11-24T02:28:43.681Z,88.29
2017-11-24T02:31:11.259Z,88.58
2017-11-24T02:33:38.816Z,88.81
2017-11-24T02:36:06.391Z,89.07
2017-11-24T02:38:33.927Z,88.61
2017-11-24T02:41:01.516Z,88.90
2017-11-24T02:43:29.050Z,88.23
2017-11-24T02:45:56.591Z,88.67
2017-11-24T02:48:24.289Z,88.02
2017-11-24T02:50:51.830Z,88.03
2017-11-24T02:53:20.321Z,87.99
2017-11-24T02:55:48.029Z,89.12
2017-11-24T02:58:15.587Z,89.82
2017-11-24T03:00:43.097Z,89.79
2017-11-24T03:03:10.671Z,89.91
2017-11-24T03:05:38.181Z,90.21
2017-11-24T03:08:05.712Z,89.95
2017-11-24T03:10:33.271Z,89.96
2017-11-24T03:13:00.811Z,91.85
2017-11-24T03:15:28.373Z,92.37
2017-11-24T03:17:55.914Z,91.73
2017-11-24T03:20:23.661Z,90.85
2017-11-24T03:22:51.684Z,90.34
2017-11-24T03:25:19.198Z,91.39
2017-11-24T03:27:46.742Z,91.47
2017-11-24T03:30:14.271Z,91.54
2017-11-24T03:32:41.837Z,91.78
2017-11-24T03:35:09.357Z,91.10
2017-11-24T03:37:36.987Z,90.92
2017-11-24T03:40:04.571Z,89.77
2017-11-24T03:42:32.128Z,89.91
2017-11-24T03:44:59.796Z,89.38
2017-11-24T03:47:27.322Z,89.72
2017-11-24T03:49:54.839Z,89.52
2017-11-24T03:52:22.381Z,88.99
2017-11-24T03:54:49.924Z,88.62
2017-11-24T03:57:17.662Z,88.14
2017-11-24T03:59:45.202Z,88.12
2017-11-24T04:02:12.708Z,88.82
2017-11-24T04:04:40.260Z,89.03
2017-11-24T04:07:07.791Z,89.75
2017-11-24T04:09:35.365Z,90.24
2017-11-24T04:12:02.942Z,91.11
2017-11-24T04:14:30.463Z,91.85
2017-11-24T04:16:58.028Z,91.77
2017-11-24T04:19:25.612Z,92.10
2017-11-24T04:21:53.210Z,92.11
2017-11-24T04:24:20.801Z,92.17
2017-11-24T04:26:48.315Z,93.22
2017-11-24T04:29:15.821Z,94.03
2017-11-24T04:31:43.570Z,94.82
2017-11-24T04:34:11.086Z,94.09
2017-11-24T04:36:38.592Z,91.30
2017-11-24T04:39:06.142Z,93.16
2017-11-24T04:41:33.739Z,92.92
2017-11-24T04:44:01.285Z,93.41
2017-11-24T04:46:28.831Z,92.00
2017-11-24T04:48:56.392Z,91.56
2017-11-24T04:51:23.934Z,95.12
2017-11-24T04:53:51.447Z,96.14
2017-11-24T04:56:19.027Z,96.48
2017-11-24T04:58:46.546Z,96.67
2017-11-24T05:01:14.061Z,96.82
2017-11-24T05:03:41.626Z,96.63
2017-11-24T05:06:09.148Z,96.96
2017-11-24T05:08:36.657Z,97.48
2017-11-24T05:11:04.243Z,97.52
2017-11-24T05:13:31.753Z,97.74
2017-11-24T05:15:59.276Z,97.43
2017-11-24T05:18:26.822Z,97.73
2017-11-24T05:20:54.361Z,97.84
2017-11-24T05:23:22.023Z,98.01
2017-11-24T05:25:49.595Z,98.06
2017-11-24T05:28:17.114Z,97.95
2017-11-24T05:30:44.626Z,97.90
2017-11-24T05:33:12.163Z,97.71
2017-11-24T05:35:39.777Z,97.59
2017-11-24T05:38:07.300Z,97.52
2017-11-24T05:40:34.826Z,97.43
2017-11-24T05:43:02.387Z,97.44
2017-11-24T05:45:30.144Z,96.73
2017-11-24T05:47:57.665Z,96.35
2017-11-24T05:50:25.182Z,97.34
2017-11-24T05:52:52.743Z,97.05
2017-11-24T05:55:20.266Z,96.00
2017-11-24T05:57:47.795Z,93.71
2017-11-24T06:00:15.364Z,93.87
2017-11-24T06:02:42.905Z,94.76
2017-11-24T06:05:10.436Z,95.42
2017-11-24T06:07:37.998Z,95.81
2017-11-24T06:10:05.546Z,96.02
2017-11-24T06:12:33.246Z,96.11
2017-11-24T06:15:00.770Z,96.46
2017-11-24T06:17:28.306Z,96.43
2017-11-24T06:19:56.068Z,96.11
2017-11-24T06:22:23.618Z,96.48
2017-11-24T06:24:51.134Z,96.73
2017-11-24T06:27:18.986Z,96.50
2017-11-24T06:29:46.520Z,96.74
2017-11-24T06:32:14.126Z,96.53
2017-11-24T06:34:41.702Z,97.19
2017-11-24T06:37:09.231Z,98.42
2017-11-24T06:39:36.746Z,98.56
2017-11-24T06:42:04.327Z,99.05
2017-11-24T06:44:31.861Z,99.15
2017-11-24T06:46:59.382Z,99.21
2017-11-24T06:49:26.917Z,99.39
2017-11-24T06:51:54.438Z,99.22
2017-11-24T06:54:22.230Z,98.95
2017-11-24T06:56:49.728Z,98.73
2017-11-24T06:59:17.254Z,98.67
2017-11-24T07:01:44.803Z,99.19
2017-11-24T07:04:12.333Z,99.51
2017-11-24T07:06:39.913Z,99.56
2017-11-24T07:09:07.467Z,99.49
2017-11-24T07:11:35.040Z,99.51
2017-11-24T07:14:02.560Z,99.24
2017-11-24T07:16:30.082Z,99.13
2017-11-24T07:18:57.644Z,99.01
2017-11-24T07:21:25.182Z,98.95
2017-11-24T07:23:52.708Z,98.82
2017-11-24T07:26:20.436Z,98.74
2017-11-24T07:28:47.998Z,98.48
2017-11-24T07:31:15.519Z,98.68
2017-11-24T07:33:43.102Z,98.49
2017-11-24T07:36:10.697Z,98.52
2017-11-24T07:38:38.234Z,98.25
2017-11-24T07:41:05.777Z,98.36
2017-11-24T07:43:33.323Z,98.56
2017-11-24T07:46:00.844Z,97.75
2017-11-24T07:48:28.574Z,97.54
2017-11-24T07:50:56.093Z,98.29
2017-11-24T07:53:23.612Z,98.02
2017-11-24T07:55:51.192Z,97.59
2017-11-24T07:58:18.697Z,96.72
2017-11-24T08:00:46.221Z,96.95
2017-11-24T08:03:13.800Z,96.88
2017-11-24T08:05:41.322Z,96.94
2017-11-24T08:08:08.851Z,97.22
2017-11-24T08:10:36.399Z,97.33
2017-11-24T08:13:03.936Z,97.75
2017-11-24T08:15:31.477Z,98.33
2017-11-24T08:17:58.985Z,98.63
2017-11-24T08:20:26.561Z,98.41
2017-11-24T08:22:54.083Z,98.15
2017-11-24T08:25:21.604Z,97.01
2017-11-24T08:27:49.147Z,96.90
2017-11-24T08:30:16.679Z,96.68
2017-11-24T08:32:44.386Z,96.69
2017-11-24T08:35:11.902Z,96.66
2017-11-24T08:37:39.438Z,96.73
2017-11-24T08:40:06.972Z,96.39
2017-11-24T08:42:34.682Z,95.35
2017-11-24T08:45:02.215Z,95.04
2017-11-24T08:47:35.273Z,95.42
2017-11-24T08:50:02.823Z,95.30
2017-11-24T08:52:30.337Z,95.62
2017-11-24T08:54:57.873Z,96.03
2017-11-24T08:57:25.425Z,95.87
2017-11-24T08:59:52.942Z,96.01
2017-11-24T09:02:20.481Z,96.09
2017-11-24T09:04:48.033Z,95.87
2017-11-24T09:07:15.550Z,96.40
2017-11-24T09:09:43.101Z,96.88
2017-11-24T09:12:10.650Z,96.12
2017-11-24T09:14:38.192Z,95.94
2017-11-24T09:17:05.772Z,95.92
2017-11-24T09:19:33.341Z,97.82
2017-11-24T09:22:00.895Z,98.13
2017-11-24T09:24:28.437Z,97.72
2017-11-24T09:26:56.041Z,96.53
2017-11-24T09:29:23.602Z,95.83
2017-11-24T09:31:51.147Z,97.89
2017-11-24T09:34:18.817Z,98.57
2017-11-24T09:36:46.366Z,98.88
2017-11-24T09:39:13.885Z,99.18
2017-11-24T09:41:41.482Z,98.67
2017-11-24T09:44:09.013Z,98.58
2017-11-24T09:46:36.534Z,98.43
2017-11-24T09:49:04.117Z,98.60
2017-11-24T09:51:31.714Z,97.62
2017-11-24T09:53:59.372Z,97.61
2017-11-24T09:56:26.938Z,98.01
2017-11-24T09:58:54.494Z,98.59
2017-11-24T10:01:22.054Z,98.35
2017-11-24T10:03:49.623Z,98.34
2017-11-24T10:06:17.192Z,98.02
2017-11-24T10:08:44.757Z,97.17
2017-11-24T10:11:12.286Z,97.63
2017-11-24T10:13:39.859Z,97.79
2017-11-24T10:16:07.396Z,97.74
2017-11-24T10:18:34.930Z,96.47
2017-11-24T10:21:08.184Z,96.71
2017-11-24T10:23:35.701Z,97.24
2017-11-24T10:26:03.218Z,97.42
2017-11-24T10:28:30.877Z,96.95
2017-11-24T10:30:58.397Z,97.69
2017-11-24T10:33:26.911Z,97.51
2017-11-24T10:35:54.600Z,97.63
2017-11-24T10:38:22.139Z,97.54
2017-11-24T10:40:49.658Z,97.41
2017-11-24T10:43:17.245Z,96.40
2017-11-24T10:45:44.770Z,96.31
2017-11-24T10:48:12.283Z,96.96
2017-11-24T10:50:39.855Z,97.10
2017-11-24T10:53:07.404Z,96.25
2017-11-24T10:55:34.913Z,96.93
2017-11-24T10:58:02.499Z,97.01
2017-11-24T11:00:30.029Z,96.52
2017-11-24T11:02:57.549Z,96.74
2017-11-24T11:05:25.114Z,95.95
2017-11-24T11:07:52.631Z,95.26
2017-11-24T11:10:20.159Z,95.37
2017-11-24T11:12:47.723Z,94.79
2017-11-24T11:15:15.247Z,95.29
2017-11-24T11:17:42.757Z,94.89
2017-11-24T11:20:10.307Z,94.21
2017-11-24T11:22:37.978Z,93.96
2017-11-24T11:25:05.523Z,93.19
2017-11-24T11:27:33.058Z,93.14
2017-11-24T11:30:00.647Z,92.09
2017-11-24T11:32:28.164Z,92.02
2017-11-24T11:34:55.697Z,91.81
2017-11-24T11:37:23.289Z,91.63
2017-11-24T11:39:50.844Z,90.00
2017-11-24T11:42:18.361Z,88.07
2017-11-24T11:44:46.031Z,88.23
2017-11-24T11:47:13.546Z,89.34
2017-11-24T11:50:54.788Z,89.33
2017-11-24T11:53:22.498Z,89.35
2017-11-24T11:55:50.014Z,89.23
2017-11-24T11:58:17.535Z,88.34
2017-11-24T12:00:45.315Z,89.00
2017-11-24T12:03:12.834Z,88.88
2017-11-24T12:05:40.337Z,88.10
2017-11-24T12:08:08.025Z,87.10
2017-11-24T12:10:35.539Z,87.61
2017-11-24T12:13:03.054Z,88.58
2017-11-24T12:15:30.599Z,89.86
2017-11-24T12:17:58.318Z,91.78
2017-11-24T12:20:25.825Z,91.02
2017-11-24T12:22:53.344Z,90.95
2017-11-24T12:25:20.926Z,90.95
2017-11-24T12:27:48.446Z,90.15
2017-11-24T12:30:15.970Z,89.50
2017-11-24T12:32:43.534Z,89.68
2017-11-24T12:35:11.058Z,89.54
2017-11-24T12:37:38.577Z,89.81
2017-11-24T12:40:06.231Z,89.36
2017-11-24T12:42:33.741Z,86.78
2017-11-24T12:45:01.251Z,87.32
2017-11-24T12:47:28.822Z,88.62
2017-11-24T12:49:56.340Z,90.15
2017-11-24T12:52:23.857Z,89.36
2017-11-24T12:54:51.394Z,88.75
2017-11-24T12:57:18.907Z,89.27
2017-11-24T12:59:46.445Z,89.71
2017-11-24T13:02:13.985Z,90.48
2017-11-24T13:04:41.557Z,90.84
2017-11-24T13:07:09.102Z,90.91
2017-11-24T13:09:36.623Z,90.18
2017-11-24T13:12:04.192Z,90.51
2017-11-24T13:14:31.735Z,88.48
2017-11-24T13:16:59.281Z,87.43
2017-11-24T13:19:26.814Z,87.74
2017-11-24T13:21:54.394Z,87.51
2017-11-24T13:24:21.931Z,87.96
2017-11-24T13:26:49.457Z,86.94
2017-11-24T13:29:17.012Z,86.90
2017-11-24T13:31:44.535Z,86.99
2017-11-24T13:34:12.068Z,88.63
2017-11-24T13:36:39.662Z,88.06
2017-11-24T13:39:07.147Z,87.37
2017-11-24T13:41:34.724Z,87.95
2017-11-24T13:44:02.238Z,89.83
2017-11-24T13:46:29.766Z,90.93
2017-11-24T13:48:57.333Z,91.68
2017-11-24T13:51:24.856Z,90.40
2017-11-24T13:53:52.417Z,89.07
2017-11-24T13:56:19.989Z,90.00
2017-11-24T13:58:47.531Z,89.17
2017-11-24T14:01:15.045Z,87.92
2017-11-24T14:03:42.617Z,88.07
2017-11-24T14:06:10.134Z,90.32
2017-11-24T14:08:37.662Z,89.82
2017-11-24T14:11:05.231Z,89.52
2017-11-24T14:13:32.741Z,91.02
2017-11-24T14:16:00.254Z,90.54
2017-11-24T14:18:27.796Z,90.41
2017-11-24T14:20:55.334Z,90.47
2017-11-24T14:23:22.884Z,89.57
2017-11-24T14:25:50.389Z,89.70
2017-11-24T14:28:17.954Z,89.36
2017-11-24T14:30:45.467Z,89.43
2017-11-24T14:33:12.996Z,89.14
2017-11-24T14:35:40.706Z,89.74
2017-11-24T14:38:08.241Z,89.46
2017-11-24T14:40:35.757Z,89.92
2017-11-24T14:43:03.427Z,90.40
2017-11-24T14:45:30.956Z,90.85
2017-11-24T14:47:58.487Z,91.38
2017-11-24T14:50:26.030Z,91.19
2017-11-24T14:52:53.599Z,92.31
2017-11-24T14:55:21.127Z,91.63
2017-11-24T14:57:48.654Z,91.62
2017-11-24T15:00:16.396Z,91.88
2017-11-24T15:02:43.923Z,93.09
2017-11-24T15:05:11.456Z,93.49
2017-11-24T15:07:39.005Z,93.37
2017-11-24T15:10:06.620Z,93.13
2017-11-24T15:12:34.130Z,93.58
2017-11-24T15:15:01.841Z,94.41
2017-11-24T15:17:29.354Z,94.78
2017-11-24T15:19:56.876Z,95.30
2017-11-24T15:22:24.440Z,95.82
2017-11-24T15:24:51.954Z,95.63
2017-11-24T15:27:19.494Z,95.77
2017-11-24T15:29:47.170Z,95.66
2017-11-24T15:32:14.870Z,95.99
2017-11-24T15:34:42.410Z,96.14
2017-11-24T15:37:09.985Z,96.63
2017-11-24T15:39:37.519Z,96.69
2017-11-24T15:42:05.053Z,96.97
2017-11-24T15:44:32.649Z,96.94
2017-11-24T15:47:00.183Z,96.82
2017-11-24T15:49:27.709Z,97.03
2017-11-24T15:51:55.275Z,96.90
2017-11-24T15:54:22.798Z,97.21
2017-11-24T15:56:50.477Z,97.01
2017-11-24T15:59:18.004Z,96.97
2017-11-24T16:01:45.550Z,97.29
2017-11-24T16:04:13.139Z,96.73
2017-11-24T16:06:40.673Z,96.74
2017-11-24T16:09:08.193Z,96.88
2017-11-24T16:11:35.729Z,96.93
2017-11-24T16:14:03.258Z,96.96
2017-11-24T16:16:30.831Z,97.20
2017-11-24T16:18:58.354Z,97.40
2017-11-24T16:21:25.878Z,97.24
2017-11-24T16:23:53.576Z,97.09
2017-11-24T16:26:21.133Z,97.34
2017-11-24T16:28:48.818Z,97.46
2017-11-24T16:31:16.333Z,97.73
2017-11-24T16:33:43.850Z,97.48
2017-11-24T16:36:11.541Z,97.68
2017-11-24T16:38:39.073Z,97.76
2017-11-24T16:41:06.590Z,97.81
2017-11-24T16:43:34.348Z,97.79
2017-11-24T16:46:01.874Z,97.91
2017-11-24T16:48:29.392Z,97.77
2017-11-24T16:50:56.956Z,98.03
2017-11-24T16:53:24.493Z,97.93
2017-11-24T16:55:52.156Z,97.93
2017-11-24T16:58:19.673Z,97.98
2017-11-24T17:00:47.212Z,97.94
2017-11-24T17:03:14.802Z,97.59
2017-11-24T17:05:42.336Z,97.62
2017-11-24T17:08:09.858Z,97.49
2017-11-24T17:10:37.444Z,97.38
2017-11-24T17:13:04.999Z,97.67
2017-11-24T17:15:32.531Z,97.76
2017-11-24T17:18:00.097Z,97.79
2017-11-24T17:20:27.645Z,97.84
2017-11-24T17:22:55.166Z,97.38
2017-11-24T17:25:22.719Z,97.33
2017-11-24T17:27:50.491Z,97.30
2017-11-24T17:30:18.021Z,97.53
2017-11-24T17:32:45.567Z,97.28
2017-11-24T17:35:13.125Z,97.41
2017-11-24T17:37:40.651Z,97.64
2017-11-24T17:40:08.263Z,97.57
2017-11-24T17:42:35.820Z,97.58
2017-11-24T17:45:03.367Z,97.57
2017-11-24T17:47:31.054Z,97.51
2017-11-24T17:49:58.573Z,97.58
2017-11-24T17:52:26.103Z,97.48
2017-11-24T17:54:53.777Z,97.59
2017-11-24T17:57:21.333Z,98.87
2017-11-24T17:59:48.970Z,98.10
2017-11-24T18:02:16.677Z,98.10
2017-11-24T18:04:44.209Z,97.95
2017-11-24T18:07:11.751Z,98.05
2017-11-24T18:09:39.312Z,97.84
2017-11-24T18:12:06.863Z,97.93
2017-11-24T18:14:34.391Z,98.39
2017-11-24T18:17:01.968Z,98.52
2017-11-24T18:19:29.490Z,98.13
2017-11-24T18:21:57.033Z,98.27
2017-11-24T18:24:24.579Z,98.30
2017-11-24T18:26:52.135Z,98.44
2017-11-24T18:29:19.654Z,98.20
2017-11-24T18:31:47.257Z,98.24
2017-11-24T18:34:14.826Z,98.09
2017-11-24T18:36:42.353Z,98.12
2017-11-24T18:39:09.949Z,98.03
2017-11-24T18:41:37.505Z,97.40
2017-11-24T18:44:05.018Z,97.75
2017-11-24T18:46:32.611Z,97.80
2017-11-24T18:49:00.142Z,97.67
2017-11-24T18:51:27.670Z,97.90
2017-11-24T18:53:55.409Z,97.92
2017-11-24T18:56:22.934Z,97.66
2017-11-24T18:58:50.463Z,97.03
2017-11-24T19:01:18.146Z,97.39
2017-11-24T19:03:45.682Z,97.69
2017-11-24T19:06:13.217Z,98.15
2017-11-24T19:08:40.808Z,98.29
2017-11-24T19:11:08.333Z,98.50
2017-11-24T19:13:35.906Z,98.75
2017-11-24T19:16:03.459Z,98.72
2017-11-24T19:18:31.151Z,98.77
2017-11-24T19:20:58.675Z,98.83
2017-11-24T19:23:26.204Z,98.86
2017-11-24T19:25:53.805Z,99.15
2017-11-24T19:28:21.331Z,99.20
2017-11-24T19:30:48.880Z,99.32
2017-11-24T19:33:16.491Z,99.35
2017-11-24T19:35:44.041Z,99.21
2017-11-24T19:38:11.582Z,99.13
2017-11-24T19:40:39.145Z,99.08
2017-11-24T19:43:06.687Z,99.66
2017-11-24T19:45:34.339Z,99.52
2017-11-24T19:48:01.877Z,99.28
2017-11-24T19:50:29.477Z,99.33
2017-11-24T19:52:57.010Z,99.17
2017-11-24T19:55:24.538Z,99.28
2017-11-24T19:57:52.087Z,99.03
2017-11-24T20:00:19.673Z,99.00
2017-11-24T20:02:47.231Z,98.76
2017-11-24T20:05:14.781Z,98.83
2017-11-24T20:07:42.303Z,98.78
2017-11-24T20:10:09.904Z,98.73
2017-11-24T20:12:37.451Z,98.96
2017-11-24T20:15:05.009Z,98.70
2017-11-24T20:17:32.563Z,98.74
2017-11-24T20:20:00.175Z,98.83
2017-11-24T20:22:27.697Z,98.66
2017-11-24T20:24:55.217Z,98.61
2017-11-24T20:27:22.792Z,98.51
2017-11-24T20:29:50.323Z,98.28
2017-11-24T20:32:17.861Z,98.65
2017-11-24T20:34:45.407Z,98.94
2017-11-24T20:37:13.182Z,99.08
2017-11-24T20:39:40.710Z,99.19
2017-11-24T20:42:08.234Z,99.13
2017-11-24T20:44:35.778Z,99.22
2017-11-24T20:47:03.313Z,99.15
2017-11-24T20:49:30.880Z,99.46
2017-11-24T20:51:58.429Z,99.56
2017-11-24T20:54:26.185Z,99.45
2017-11-24T20:56:53.698Z,99.56
2017-11-24T20:59:21.222Z,99.68
2017-11-24T21:01:48.782Z,99.57
2017-11-24T21:04:16.330Z,99.64
2017-11-24T21:06:43.863Z,99.53
2017-11-24T21:09:11.443Z,99.46
2017-11-24T21:11:38.975Z,99.36
2017-11-24T21:14:06.498Z,99.26
2017-11-24T21:16:34.061Z,99.29
2017-11-24T21:19:01.601Z,99.34
2017-11-24T21:21:29.136Z,99.47
2017-11-24T21:23:56.653Z,99.49
2017-11-24T21:26:24.199Z,99.33
2017-11-24T21:28:51.755Z,99.28
2017-11-24T21:31:19.318Z,99.27
2017-11-24T21:33:46.847Z,99.44
2017-11-24T21:36:14.394Z,99.34
2017-11-24T21:38:42.058Z,99.17
2017-11-24T21:41:09.573Z,99.42
2017-11-24T21:43:37.098Z,99.40
2017-11-24T21:46:04.831Z,99.34
2017-11-24T21:48:32.354Z,99.49
2017-11-24T21:50:59.885Z,99.21
2017-11-24T21:53:27.453Z,99.42
2017-11-24T21:55:54.973Z,99.67
2017-11-24T21:58:22.503Z,99.83
2017-11-24T22:00:50.049Z,99.92
2017-11-24T22:03:17.570Z,100.00
2017-11-24T22:05:45.231Z,99.90
2017-11-24T22:08:12.746Z,100.00
2017-11-24T22:10:40.278Z,100.00
2017-11-24T22:13:07.821Z,100.00
2017-11-24T22:15:35.348Z,100.00
2017-11-24T22:18:02.921Z,100.00
2017-11-24T22:20:30.450Z,100.00
2017-11-24T22:22:58.015Z,100.00
2017-11-24T22:25:25.554Z,100.00
2017-11-24T22:27:53.115Z,99.83
2017-11-24T22:30:20.728Z,99.81
2017-11-24T22:32:48.266Z,99.75
2017-11-24T22:35:15.811Z,99.19
2017-11-24T22:37:43.350Z,99.24
2017-11-24T22:40:10.999Z,97.58
2017-11-24T22:42:38.547Z,96.76
2017-11-24T22:45:06.076Z,96.84
2017-11-24T22:47:33.643Z,97.81
2017-11-24T22:50:01.189Z,98.36
2017-11-24T22:52:28.788Z,98.71
2017-11-24T22:54:56.331Z,98.87
2017-11-24T22:57:23.878Z,99.00
2017-11-24T22:59:51.475Z,99.02
2017-11-24T23:02:18.985Z,99.14
2017-11-24T23:04:46.543Z,99.04
2017-11-24T23:07:14.091Z,99.16
2017-11-24T23:09:41.647Z,98.99
2017-11-24T23:12:09.305Z,99.02
2017-11-24T23:14:36.830Z,99.02
2017-11-24T23:17:04.376Z,99.00
2017-11-24T23:19:32.035Z,99.15
2017-11-24T23:21:59.562Z,99.23
2017-11-24T23:24:27.073Z,99.10
2017-11-24T23:26:54.634Z,99.17
2017-11-24T23:29:22.199Z,99.88
2017-11-24T23:31:49.719Z,99.90
2017-11-24T23:34:17.526Z,99.75
2017-11-24T23:36:45.041Z,99.51
2017-11-24T23:39:12.568Z,98.46
2017-11-24T23:41:40.157Z,96.54
2017-11-24T23:44:07.673Z,97.74
2017-11-24T23:46:35.188Z,99.01
2017-11-24T23:49:02.758Z,99.41
2017-11-24T23:51:30.269Z,99.87
2017-11-24T23:53:57.802Z,100.00
2017-11-24T23:56:25.351Z,100.00
2017-11-24T23:58:52.878Z,100.00
